createdAt,value
2019-05-19T00:03:24.681Z,45.23
2019-05-19T00:08:25.956Z,46.27
2019-05-19T00:13:31.332Z,45.63
2019-05-19T00:18:35.861Z,45.10
2019-05-19T00:23:38.202Z,44.80
2019-05-19T00:28:42.793Z,43.53
2019-05-19T00:33:47.636Z,46.10
2019-05-19T00:38:48.908Z,47.03
2019-05-19T00:43:53.354Z,47.53
2019-05-19T00:49:14.948Z,46.30
2019-05-19T00:54:19.630Z,47.70
2019-05-19T00:59:27.367Z,48.20
2019-05-19T01:04:34.550Z,46.93
2019-05-19T01:09:35.845Z,47.50
2019-05-19T01:14:40.252Z,48.23
2019-05-19T01:19:55.180Z,47.40
2019-05-19T01:24:46.421Z,48.17
2019-05-19T01:29:50.830Z,48.77
2019-05-19T01:34:55.371Z,50.47
2019-05-19T01:39:56.646Z,50.00
2019-05-19T01:45:02.323Z,50.43
2019-05-19T01:50:17.482Z,49.07
2019-05-19T01:55:24.290Z,52.63
2019-05-19T02:00:28.822Z,51.10
2019-05-19T02:05:31.248Z,53.77
2019-05-19T02:10:38.876Z,55.30
2019-05-19T02:15:43.372Z,54.70
2019-05-19T02:20:47.999Z,51.03
2019-05-19T02:25:52.489Z,54.70
2019-05-19T02:31:01.615Z,54.87
2019-05-19T02:36:04.017Z,54.13
2019-05-19T02:41:10.577Z,56.73
2019-05-19T02:46:19.222Z,54.90
2019-05-19T02:51:24.934Z,57.27
2019-05-19T02:56:49.954Z,58.63
2019-05-19T03:02:03.177Z,55.77
2019-05-19T03:07:12.063Z,60.30
2019-05-19T03:12:13.583Z,56.63
2019-05-19T03:17:15.977Z,59.13
2019-05-19T03:22:20.538Z,58.07
2019-05-19T03:27:23.893Z,58.67
2019-05-19T03:32:34.022Z,60.30
2019-05-19T03:37:35.390Z,60.17
2019-05-19T03:42:39.928Z,56.63
2019-05-19T03:47:47.360Z,59.67
2019-05-19T03:53:02.515Z,55.00
2019-05-19T03:58:03.984Z,58.37
2019-05-19T04:03:07.311Z,55.73
2019-05-19T04:08:08.694Z,55.23
2019-05-19T04:13:21.431Z,56.57
2019-05-19T04:18:25.075Z,57.00
2019-05-19T04:23:32.168Z,59.27
2019-05-19T04:28:36.813Z,55.80
2019-05-19T04:33:55.180Z,58.27
2019-05-19T04:38:56.469Z,55.83
2019-05-19T04:44:00.876Z,57.70
2019-05-19T04:49:05.698Z,53.70
2019-05-19T04:54:15.156Z,54.13
2019-05-19T04:59:17.589Z,52.70
2019-05-19T05:04:28.777Z,54.93
2019-05-19T05:09:32.291Z,53.47
2019-05-19T05:14:33.671Z,54.17
2019-05-19T05:19:38.212Z,54.63
2019-05-19T05:24:42.736Z,52.70
2019-05-19T05:29:49.867Z,54.43
2019-05-19T05:34:54.279Z,53.90
2019-05-19T05:39:56.673Z,51.23
2019-05-19T05:44:59.168Z,57.93
2019-05-19T05:50:11.295Z,54.53
2019-05-19T05:55:18.579Z,56.90
2019-05-19T06:00:22.128Z,56.23
2019-05-19T06:05:32.627Z,55.47
2019-05-19T06:10:33.889Z,54.60
2019-05-19T06:15:40.205Z,54.97
2019-05-19T06:20:41.623Z,54.03
2019-05-19T06:25:46.288Z,56.13
2019-05-19T06:30:48.890Z,54.20
2019-05-19T06:35:50.337Z,59.17
2019-05-19T06:40:52.739Z,62.17
2019-05-19T06:45:54.237Z,60.87
2019-05-19T06:50:57.548Z,60.43
2019-05-19T06:56:02.090Z,62.97
2019-05-19T07:01:03.542Z,63.97
2019-05-19T07:06:05.946Z,63.97
2019-05-19T07:11:07.226Z,64.93
2019-05-19T07:16:08.625Z,63.83
2019-05-19T07:21:09.898Z,63.57
2019-05-19T07:26:11.195Z,69.50
2019-05-19T07:31:14.543Z,64.87
2019-05-19T07:36:19.111Z,64.57
2019-05-19T07:41:23.671Z,68.23
2019-05-19T07:46:25.104Z,63.90
2019-05-19T07:51:28.439Z,63.30
2019-05-19T07:56:29.731Z,64.77
2019-05-19T08:01:32.329Z,61.47
2019-05-19T08:06:34.690Z,61.13
2019-05-19T08:11:35.954Z,61.70
2019-05-19T08:16:37.340Z,65.03
2019-05-19T08:21:39.746Z,53.73
2019-05-19T08:26:41.129Z,55.93
2019-05-19T08:31:42.653Z,57.23
2019-05-19T08:36:45.098Z,46.93
2019-05-19T08:41:47.476Z,57.67
2019-05-19T08:46:48.920Z,51.20
2019-05-19T08:51:52.267Z,48.83
2019-05-19T08:56:54.631Z,50.73
2019-05-19T09:01:56.217Z,55.10
2019-05-19T09:06:57.602Z,59.20
2019-05-19T09:11:58.899Z,54.20
2019-05-19T09:17:00.258Z,55.67
2019-05-19T09:22:03.568Z,54.63
2019-05-19T09:27:04.843Z,53.77
2019-05-19T09:32:13.257Z,51.67
2019-05-19T09:37:14.784Z,49.70
2019-05-19T09:42:16.223Z,50.83
2019-05-19T09:47:17.683Z,47.37
2019-05-19T09:52:19.174Z,49.70
2019-05-19T09:57:20.660Z,48.87
2019-05-19T10:02:22.127Z,45.73
2019-05-19T10:07:25.769Z,40.60
2019-05-19T10:12:28.369Z,41.83
2019-05-19T10:17:30.824Z,35.95
2019-05-19T10:22:34.259Z,35.95
2019-05-19T10:27:35.661Z,34.40
2019-05-19T10:32:39.249Z,34.43
2019-05-19T10:37:44.199Z,41.85
2019-05-19T10:42:45.570Z,42.65
2019-05-19T10:47:47.012Z,43.77
2019-05-19T10:52:49.520Z,45.77
2019-05-19T10:57:50.800Z,45.07
2019-05-19T11:02:54.263Z,44.00
2019-05-19T11:07:58.777Z,41.47
2019-05-19T11:13:00.073Z,39.67
2019-05-19T11:18:06.368Z,38.90
2019-05-19T11:23:07.803Z,37.60
2019-05-19T11:28:09.075Z,38.33
2019-05-19T11:33:10.556Z,38.50
2019-05-19T11:38:11.907Z,36.20
2019-05-19T11:43:13.395Z,38.80
2019-05-19T11:48:14.978Z,36.77
2019-05-19T11:53:16.351Z,36.20
2019-05-19T11:58:17.637Z,35.13
2019-05-19T12:03:21.142Z,39.60
2019-05-19T12:08:22.591Z,29.13
2019-05-19T12:13:23.882Z,37.67
2019-05-19T12:18:27.384Z,41.25
2019-05-19T12:23:28.978Z,43.58
2019-05-19T12:28:30.244Z,42.27
2019-05-19T12:33:31.847Z,40.03
2019-05-19T12:38:33.270Z,40.47
2019-05-19T12:43:34.824Z,42.40
2019-05-19T12:48:36.192Z,40.47
2019-05-19T12:53:37.826Z,42.03
2019-05-19T12:58:39.268Z,42.87
2019-05-19T13:03:40.897Z,42.70
2019-05-19T13:08:42.642Z,41.07
2019-05-19T13:13:43.958Z,43.27
2019-05-19T13:18:45.456Z,37.73
2019-05-19T13:23:47.041Z,40.37
2019-05-19T13:28:48.354Z,42.50
2019-05-19T13:33:49.883Z,41.15
2019-05-19T13:38:51.436Z,41.50
2019-05-19T13:43:53.059Z,42.43
2019-05-19T13:48:54.590Z,44.48
2019-05-19T13:53:56.382Z,46.45
2019-05-19T13:58:57.653Z,44.80
2019-05-19T14:04:00.409Z,39.15
2019-05-19T14:09:04.271Z,41.65
2019-05-19T14:14:05.542Z,38.13
2019-05-19T14:19:07.066Z,35.45
2019-05-19T14:24:09.850Z,34.63
2019-05-19T14:29:11.174Z,34.70
2019-05-19T14:34:12.729Z,32.70
2019-05-19T14:39:14.176Z,35.25
2019-05-19T14:44:15.684Z,34.73
2019-05-19T14:49:17.027Z,34.50
2019-05-19T14:54:19.541Z,30.37
2019-05-19T14:59:20.844Z,30.02
2019-05-19T15:04:22.158Z,30.63
2019-05-19T15:09:24.615Z,28.73
2019-05-19T15:14:25.902Z,32.17
2019-05-19T15:19:28.437Z,28.70
2019-05-19T15:24:29.927Z,30.87
2019-05-19T15:29:31.243Z,31.80
2019-05-19T15:34:33.815Z,30.03
2019-05-19T15:39:35.232Z,26.27
2019-05-19T15:44:37.701Z,28.57
2019-05-19T15:49:39.128Z,29.70
2019-05-19T15:54:46.455Z,27.30
2019-05-19T15:59:47.758Z,29.33
2019-05-19T16:04:50.317Z,28.73
2019-05-19T16:09:51.862Z,28.90
2019-05-19T16:14:53.152Z,29.23
2019-05-19T16:19:54.726Z,29.43
2019-05-19T16:24:57.121Z,28.27
2019-05-19T16:29:58.403Z,30.23
2019-05-19T16:35:01.080Z,31.37
2019-05-19T16:40:04.286Z,32.53
2019-05-19T16:45:09.944Z,33.03
2019-05-19T16:50:12.765Z,33.23
2019-05-19T16:55:16.260Z,31.93
2019-05-19T17:00:18.671Z,34.73
2019-05-19T17:05:20.461Z,33.57
2019-05-19T17:10:22.062Z,32.97
2019-05-19T17:15:23.585Z,38.63
2019-05-19T17:20:25.096Z,45.73
2019-05-19T17:25:27.715Z,45.67
2019-05-19T17:30:28.995Z,40.87
2019-05-19T17:35:31.596Z,38.80
2019-05-19T17:40:33.069Z,39.33
2019-05-19T17:45:40.376Z,38.63
2019-05-19T17:50:41.936Z,40.50
2019-05-19T17:55:44.212Z,43.33
2019-05-19T18:00:45.507Z,44.67
2019-05-19T18:05:46.850Z,42.80
2019-05-19T18:10:49.304Z,42.83
2019-05-19T18:15:50.718Z,42.73
2019-05-19T18:20:53.130Z,42.70
2019-05-19T18:25:56.449Z,38.87
2019-05-19T18:30:57.714Z,43.97
2019-05-19T18:36:01.280Z,45.40
2019-05-19T18:41:02.784Z,46.63
2019-05-19T18:46:06.368Z,47.03
2019-05-19T18:51:07.808Z,45.40
2019-05-19T18:56:09.487Z,45.70
2019-05-19T19:01:10.895Z,47.37
2019-05-19T19:06:18.366Z,47.70
2019-05-19T19:11:19.677Z,45.03
2019-05-19T19:16:20.942Z,47.87
2019-05-19T19:21:24.356Z,53.47
2019-05-19T19:26:26.735Z,53.73
2019-05-19T19:31:28.047Z,52.23
2019-05-19T19:36:29.367Z,50.70
2019-05-19T19:41:34.292Z,46.00
2019-05-19T19:46:35.690Z,46.10
2019-05-19T19:51:39.331Z,43.10
2019-05-19T19:56:41.951Z,39.80
2019-05-19T20:01:43.297Z,36.27
2019-05-19T20:06:48.584Z,39.20
2019-05-19T20:11:50.944Z,41.57
2019-05-19T20:16:52.399Z,47.03
2019-05-19T20:21:57.899Z,41.70
2019-05-19T20:27:00.431Z,54.53
2019-05-19T20:32:01.828Z,54.33
2019-05-19T20:37:03.245Z,53.47
2019-05-19T20:42:07.958Z,54.10
2019-05-19T20:47:10.575Z,55.47
2019-05-19T20:52:17.802Z,55.37
2019-05-19T20:57:19.276Z,52.37
2019-05-19T21:02:25.681Z,49.70
2019-05-19T21:07:27.202Z,52.83
2019-05-19T21:12:28.718Z,51.73
2019-05-19T21:17:33.233Z,51.53
2019-05-19T21:22:34.600Z,52.23
2019-05-19T21:27:40.000Z,52.37
2019-05-19T21:32:41.573Z,50.03
2019-05-19T21:37:43.049Z,52.33
2019-05-19T21:42:50.133Z,48.77
2019-05-19T21:47:54.584Z,49.17
2019-05-19T21:52:58.219Z,50.27
2019-05-19T21:58:05.306Z,48.83
2019-05-19T22:03:09.720Z,49.27
2019-05-19T22:08:16.279Z,47.63
2019-05-19T22:13:21.012Z,48.17
2019-05-19T22:18:23.380Z,48.80
2019-05-19T22:23:24.870Z,52.57
2019-05-19T22:28:27.672Z,48.30
2019-05-19T22:33:29.536Z,50.33
2019-05-19T22:38:31.093Z,50.77
2019-05-19T22:43:34.443Z,50.37
2019-05-19T22:48:41.530Z,46.93
2019-05-19T22:53:42.986Z,45.87
2019-05-19T22:58:44.388Z,44.73
2019-05-19T23:03:46.775Z,45.07
2019-05-19T23:08:50.400Z,41.83
2019-05-19T23:13:51.679Z,46.43
2019-05-19T23:18:52.989Z,44.30
2019-05-19T23:23:55.436Z,44.13
2019-05-19T23:28:59.987Z,46.70
2019-05-19T23:34:20.681Z,42.03
2019-05-19T23:39:24.113Z,38.83
2019-05-19T23:44:28.659Z,39.83
2019-05-19T23:49:29.958Z,36.70
2019-05-19T23:54:34.364Z,39.87
2019-05-19T23:59:40.736Z,37.83
